^^
Datos históricos de la estación: Murcia-Puente Tocinos
Diario Informe para Septiembre 18, 2019 Unidades:  Métrico    Ingés   Ambas
Diario Semanal Mensual Anual
  Máxima: Mínima: Promedio:
Temperatura: 18.2 °C 14.2 °C 15.9 °C
Punto de rocio: 11.9 °C 7.8 °C 10.1 °C
Humedad: 78.1% 53% 69%
Velocidad viento: 27km/h 0km/h 7.7km/h
Racha viento: 50.1km/h - -
Viento- - SO
Presión: 1014.4 hPa 1008.3 hPa -
Precipitación: 0.0 mm    
 
 
Tabla de datos para Septiembre 18, 2019
Hora Temperatura Punto de rocio Presión Viento Velocidad viento Racha viento Humedad Intensidad lluvia(por hora) Nubes
00:04 15.5 °C 11.7 °C 1014.4 hPa Oeste 8.7 km/h 14.5 km/h 78.1% 0.0 mm
00:09 15.7 °C 11.6 °C 1014.4 hPa Oeste 8.4 km/h 17.2 km/h 76.8% 0.0 mm
00:14 15.8 °C 11.8 °C 1014.4 hPa Oeste 7.6 km/h 17.7 km/h 76.9% 0.0 mm
00:19 15.8 °C 11.8 °C 1014.4 hPa Oeste 8.4 km/h 16.1 km/h 77% 0.0 mm
00:24 15.8 °C 11.9 °C 1014.2 hPa ONO 9.5 km/h 14.5 km/h 77.5% 0.0 mm
00:29 15.7 °C 11.9 °C 1014.2 hPa ONO 7.8 km/h 9.7 km/h 78% 0.0 mm
00:34 15.7 °C 11.9 °C 1014.2 hPa NO 5 km/h 11.9 km/h 78% 0.0 mm
00:39 15.6 °C 11.8 °C 1013.5 hPa NO 5.3 km/h 11.3 km/h 78% 0.0 mm
00:44 15.6 °C 11.7 °C 1013.5 hPa ONO 5.8 km/h 11.3 km/h 78% 0.0 mm
00:49 15.5 °C 11.7 °C 1013.5 hPa ONO 5 km/h 8 km/h 78% 0.0 mm
00:54 15.5 °C 11.7 °C 1013.3 hPa ONO 3.9 km/h 9.3 km/h 78% 0.0 mm
00:59 15.5 °C 11.7 °C 1013.3 hPa Oeste 4.2 km/h 9.7 km/h 78% 0.0 mm
01:04 15.5 °C 11.6 °C 1013.5 hPa SSO 4.6 km/h 9.3 km/h 78% 0.0 mm
01:09 15.5 °C 11.6 °C 1013.5 hPa OSO 4.8 km/h 11.9 km/h 77.6% 0.0 mm
01:14 15.6 °C 11.6 °C 1013.5 hPa OSO 5 km/h 12.2 km/h 76.9% 0.0 mm
01:19 15.7 °C 11.5 °C 1013.5 hPa OSO 5.5 km/h 13 km/h 75.9% 0.0 mm
01:24 15.8 °C 11.3 °C 1013.4 hPa OSO 6.5 km/h 25.9 km/h 74.6% 0.0 mm
01:29 15.9 °C 11.2 °C 1013.4 hPa OSO 7.3 km/h 25.7 km/h 73.8% 0.0 mm
01:34 16 °C 11.1 °C 1013.4 hPa OSO 8.7 km/h 16.7 km/h 73% 0.0 mm
01:39 16 °C 11.3 °C 1013.3 hPa SO 9 km/h 16.1 km/h 73.8% 0.0 mm
01:44 15.9 °C 11.3 °C 1013.3 hPa SO 9.5 km/h 18.5 km/h 74% 0.0 mm
01:49 15.9 °C 11.3 °C 1013.3 hPa SO 9 km/h 19.3 km/h 74.2% 0.0 mm
01:54 15.8 °C 11.4 °C 1013.1 hPa SO 8.4 km/h 14.8 km/h 75% 0.0 mm
01:59 15.7 °C 11.3 °C 1013.1 hPa SO 7.7 km/h 14.5 km/h 75% 0.0 mm
02:04 15.7 °C 11.3 °C 1013.1 hPa SSO 6.9 km/h 12.9 km/h 75% 0.0 mm
02:09 15.6 °C 11.2 °C 1012.9 hPa Sur 6.8 km/h 11.3 km/h 75% 0.0 mm
02:14 15.6 °C 11.4 °C 1012.9 hPa SSE 6.5 km/h 11.3 km/h 76% 0.0 mm
02:19 15.6 °C 11.4 °C 1012.9 hPa SE 5.9 km/h 9.7 km/h 76% 0.0 mm
02:24 15.6 °C 11.4 °C 1012.5 hPa SSE 5 km/h 8.7 km/h 76% 0.0 mm
02:29 15.4 °C 11.3 °C 1012.5 hPa Sur 5.3 km/h 15.6 km/h 76.3% 0.0 mm
02:34 15.3 °C 11.3 °C 1012.5 hPa Sur 5.8 km/h 16.1 km/h 77% 0.0 mm
02:39 15.3 °C 11.3 °C 1012.3 hPa SSO 6.9 km/h 14.5 km/h 77% 0.0 mm
02:44 15.3 °C 11.2 °C 1012.3 hPa SSO 8.7 km/h 14.8 km/h 76.2% 0.0 mm
02:49 15.4 °C 11.2 °C 1012.3 hPa SSO 8.6 km/h 14.5 km/h 76% 0.0 mm
02:54 15.4 °C 11 °C 1012.3 hPa SSO 8.4 km/h 13.7 km/h 75.2% 0.0 mm
02:59 15.5 °C 11.1 °C 1012.3 hPa SSO 8 km/h 14.5 km/h 74.8% 0.0 mm
03:04 15.6 °C 11 °C 1012.3 hPa SSO 7.6 km/h 9.7 km/h 74% 0.0 mm
03:09 15.7 °C 10.9 °C 1012.0 hPa Sur 6.6 km/h 9.7 km/h 73.5% 0.0 mm
03:14 15.7 °C 10.9 °C 1012.0 hPa SSO 5 km/h 8 km/h 73% 0.0 mm
03:19 15.7 °C 10.9 °C 1012.0 hPa SSO 4.3 km/h 13 km/h 72.9% 0.0 mm
03:24 15.8 °C 10.8 °C 1011.7 hPa SSO 3.2 km/h 13.7 km/h 72% 0.0 mm
03:29 15.9 °C 10.8 °C 1011.7 hPa SO 5.1 km/h 14.5 km/h 72% 0.0 mm
03:34 15.9 °C 10.8 °C 1011.9 hPa SSO 8.4 km/h 13 km/h 71.7% 0.0 mm
03:39 16 °C 10.7 °C 1011.9 hPa SSO 8.4 km/h 15.6 km/h 70.6% 0.0 mm
03:44 16.1 °C 10.7 °C 1011.9 hPa SSO 8.4 km/h 16.1 km/h 70.2% 0.0 mm
03:49 16.1 °C 10.6 °C 1011.9 hPa ESE 6.2 km/h 8 km/h 70% 0.0 mm
03:54 16.1 °C 10.6 °C 1011.0 hPa NE 2.9 km/h 8.4 km/h 70.1% 0.0 mm
03:59 16 °C 10.8 °C 1011.0 hPa NE 3.7 km/h 9.5 km/h 71% 0.0 mm
04:04 15.9 °C 10.4 °C 1011.0 hPa North 4.6 km/h 9.7 km/h 70% 0.0 mm
04:09 15.9 °C 10.4 °C 1010.2 hPa SO 4.7 km/h 13.7 km/h 69.9% 0.0 mm
04:14 16 °C 10.4 °C 1010.2 hPa SSO 4.6 km/h 18.5 km/h 69.6% 0.0 mm
04:19 16.1 °C 10.2 °C 1010.8 hPa Oeste 6.7 km/h 19.3 km/h 68% 0.0 mm
04:24 16.2 °C 10.3 °C 1010.8 hPa SO 10 km/h 17.7 km/h 68.2% 0.0 mm
04:29 16.2 °C 10.5 °C 1010.8 hPa SO 10 km/h 17.7 km/h 69% 0.0 mm
04:34 16.1 °C 10.4 °C 1010.8 hPa OSO 10 km/h 16.1 km/h 69% 0.0 mm
04:39 16.1 °C 10.4 °C 1010.8 hPa OSO 8.6 km/h 12.9 km/h 69% 0.0 mm
04:44 16 °C 10.3 °C 1010.8 hPa ONO 6.5 km/h 9.7 km/h 69% 0.0 mm
04:49 15.9 °C 10.4 °C 1010.8 hPa ONO 5.5 km/h 8.4 km/h 69.6% 0.0 mm
04:54 15.9 °C 10.2 °C 1010.0 hPa NNE 3.9 km/h 10 km/h 68.8% 0.0 mm
04:59 15.9 °C 10.1 °C 1010.0 hPa SE 4.2 km/h 9.7 km/h 68.6% 0.0 mm
05:04 15.9 °C 9.9 °C 1010.4 hPa SSO 4.6 km/h 9.3 km/h 67.6% 0.0 mm
05:09 16.1 °C 9.8 °C 1010.4 hPa SSO 4.7 km/h 9.7 km/h 66.5% 0.0 mm
05:14 16.1 °C 9.8 °C 1010.4 hPa NNO 4.7 km/h 9.7 km/h 66% 0.0 mm
05:19 16.2 °C 9.7 °C 1010.4 hPa OSO 4.7 km/h 13 km/h 65.6% 0.0 mm
05:24 16.2 °C 10.1 °C 1010.1 hPa Sur 4.7 km/h 18.5 km/h 67.5% 0.0 mm
05:29 15.8 °C 10.3 °C 1010.1 hPa Sur 7.3 km/h 19.3 km/h 69.6% 0.0 mm
05:34 15.7 °C 10.2 °C 1010.2 hPa Sur 11.1 km/h 19.3 km/h 70% 0.0 mm
05:39 15.8 °C 10.2 °C 1010.2 hPa Sur 10.2 km/h 14.5 km/h 69.5% 0.0 mm
05:44 15.8 °C 10.1 °C 1010.2 hPa SO 8.7 km/h 13 km/h 69% 0.0 mm
05:49 15.9 °C 10.1 °C 1010.2 hPa SSO 8.3 km/h 17.2 km/h 68.6% 0.0 mm
05:54 15.9 °C 10.1 °C 1010.1 hPa SO 7.6 km/h 17.7 km/h 68% 0.0 mm
05:59 16.1 °C 10 °C 1010.1 hPa SO 7.9 km/h 17.7 km/h 67.1% 0.0 mm
06:04 16.2 °C 10 °C 1010.3 hPa SO 8.4 km/h 17.7 km/h 67% 0.0 mm
06:09 16.2 °C 10 °C 1010.3 hPa SO 8.8 km/h 16.1 km/h 67% 0.0 mm
06:14 16.1 °C 10 °C 1010.3 hPa SO 9.5 km/h 14 km/h 67% 0.0 mm
06:19 16.1 °C 9.9 °C 1010.3 hPa SO 8.7 km/h 16.7 km/h 67% 0.0 mm
06:24 16.1 °C 9.9 °C 1010.3 hPa SO 7.6 km/h 16.1 km/h 67% 0.0 mm
06:29 16.1 °C 9.9 °C 1010.3 hPa SO 7.9 km/h 18 km/h 67% 0.0 mm
06:34 16.1 °C 9.9 °C 1010.3 hPa SO 8.4 km/h 20.4 km/h 67% 0.0 mm
06:39 16.1 °C 9.9 °C 1010.3 hPa SSO 9.1 km/h 20.9 km/h 67% 0.0 mm
06:44 16.1 °C 9.9 °C 1010.3 hPa SSO 10.3 km/h 20.4 km/h 67% 0.0 mm
06:49 16.1 °C 9.9 °C 1010.4 hPa SSO 10.2 km/h 20.9 km/h 67% 0.0 mm
06:54 16.1 °C 9.9 °C 1010.4 hPa SSO 10 km/h 14.5 km/h 67% 0.0 mm
06:59 16.1 °C 9.9 °C 1010.4 hPa OSO 8.9 km/h 14.8 km/h 66.7% 0.0 mm
07:04 16.1 °C 9.8 °C 1010.4 hPa SO 7.6 km/h 14.5 km/h 66.3% 0.0 mm
07:09 16.1 °C 9.8 °C 1010.2 hPa SO 7.6 km/h 11.3 km/h 66.4% 0.0 mm
07:14 16.1 °C 9.8 °C 1010.2 hPa SSO 7.6 km/h 9.7 km/h 66.5% 0.0 mm
07:19 16.1 °C 9.7 °C 1010.5 hPa SSO 6.6 km/h 10 km/h 66% 0.0 mm
07:24 16.1 °C 9.9 °C 1010.5 hPa SSO 5 km/h 11.1 km/h 66.8% 0.0 mm
07:29 16.1 °C 9.8 °C 1010.5 hPa SSO 5.5 km/h 13 km/h 66.2% 0.0 mm
07:34 16.1 °C 9.7 °C 1010.7 hPa SSO 6.5 km/h 12.9 km/h 66% 0.0 mm
07:39 16.2 °C 9.8 °C 1010.7 hPa SO 6.5 km/h 11.9 km/h 66% 0.0 mm
07:44 16.2 °C 9.8 °C 1010.7 hPa OSO 6.5 km/h 11.3 km/h 66% 0.0 mm
07:49 16.2 °C 9.8 °C 1010.7 hPa SO 5.9 km/h 11.3 km/h 66% 0.0 mm
07:54 16.2 °C 9.8 °C 1010.4 hPa SSO 5 km/h 9.7 km/h 66% 0.0 mm
07:59 16.2 °C 9.8 °C 1010.4 hPa Sur 5 km/h 10.3 km/h 66% 0.0 mm
08:04 16.2 °C 9.8 °C 1010.5 hPa SSO 5 km/h 11.3 km/h 66% 0.0 mm
08:09 16.2 °C 9.8 °C 1010.5 hPa SSO 5.3 km/h 11.3 km/h 66% 0.0 mm
08:14 16.2 °C 9.8 °C 1010.5 hPa SSO 5.8 km/h 9.7 km/h 66% 0.0 mm
08:19 16.3 °C 9.9 °C 1010.5 hPa SSO 5.1 km/h 11.1 km/h 66% 0.0 mm
08:24 16.3 °C 9.9 °C 1010.3 hPa SSO 3.9 km/h 13 km/h 66% 0.0 mm
08:29 16.3 °C 9.9 °C 1010.3 hPa SSO 5.3 km/h 13 km/h 66% 0.0 mm
08:34 16.3 °C 9.9 °C 1010.6 hPa SSO 7.6 km/h 12.9 km/h 65.7% 0.0 mm
08:39 16.4 °C 9.8 °C 1010.6 hPa SSO 7.9 km/h 13 km/h 65.1% 0.0 mm
08:44 16.4 °C 9.8 °C 1010.6 hPa SO 8.4 km/h 12.9 km/h 65% 0.0 mm
08:49 16.4 °C 9.8 °C 1010.7 hPa SSO 7.6 km/h 13 km/h 65% 0.0 mm
08:54 16.4 °C 9.8 °C 1010.7 hPa SO 6.5 km/h 12.9 km/h 65% 0.0 mm
08:59 16.4 °C 9.8 °C 1010.7 hPa SSO 7 km/h 13 km/h 65% 0.0 mm
09:04 16.4 °C 9.8 °C 1010.7 hPa SSO 7.6 km/h 13 km/h 65% 0.0 mm
09:09 16.4 °C 9.8 °C 1010.7 hPa SO 7.3 km/h 13 km/h 65% 0.0 mm
09:14 16.5 °C 9.9 °C 1010.7 hPa SO 6.9 km/h 13.7 km/h 65% 0.0 mm
09:19 16.6 °C 9.9 °C 1010.9 hPa SO 6.9 km/h 14.5 km/h 64.6% 0.0 mm
09:24 16.6 °C 9.9 °C 1010.9 hPa SO 6.9 km/h 12.2 km/h 64.7% 0.0 mm
09:29 16.6 °C 9.8 °C 1010.9 hPa SO 6.9 km/h 13.7 km/h 64.2% 0.0 mm
09:34 16.6 °C 9.8 °C 1011.1 hPa OSO 6.9 km/h 14.8 km/h 64% 0.0 mm
09:39 16.6 °C 10 °C 1011.1 hPa SO 6.9 km/h 14.5 km/h 64.9% 0.0 mm
09:44 16.6 °C 10 °C 1011.1 hPa SO 6.9 km/h 14.8 km/h 64.8% 0.0 mm
09:49 16.6 °C 10 °C 1011.4 hPa SO 7.2 km/h 14.5 km/h 65% 0.0 mm
09:54 16.6 °C 10 °C 1011.4 hPa SO 7.6 km/h 13 km/h 65% 0.0 mm
09:59 16.6 °C 10 °C 1011.4 hPa OSO 7.6 km/h 13 km/h 65% 0.0 mm
10:04 16.6 °C 10 °C 1011.4 hPa SO 7.6 km/h 14 km/h 65% 0.0 mm
10:09 16.6 °C 10 °C 1011.3 hPa OSO 8 km/h 14.8 km/h 65% 0.0 mm
10:14 16.6 °C 10 °C 1011.3 hPa OSO 8.7 km/h 16.4 km/h 65% 0.0 mm
10:19 16.6 °C 9.8 °C 1011.3 hPa OSO 9 km/h 19.3 km/h 64.2% 0.0 mm
10:24 16.6 °C 9.8 °C 1011.0 hPa Oeste 9.5 km/h 19.3 km/h 64% 0.0 mm
10:29 16.7 °C 9.8 °C 1011.0 hPa Oeste 8.5 km/h 15.6 km/h 64% 0.0 mm
10:34 16.7 °C 9.8 °C 1011.0 hPa Oeste 6.9 km/h 16.1 km/h 64% 0.0 mm
10:39 16.7 °C 9.8 °C 1010.9 hPa ONO 7.2 km/h 14.5 km/h 64% 0.0 mm
10:44 16.7 °C 9.8 °C 1010.9 hPa ONO 7.6 km/h 13.7 km/h 63.9% 0.0 mm
10:49 16.8 °C 9.7 °C 1010.9 hPa ONO 7.6 km/h 14.5 km/h 63% 0.0 mm
10:54 16.8 °C 9.7 °C 1010.8 hPa Oeste 7.6 km/h 13 km/h 63% 0.0 mm
10:59 16.8 °C 9.7 °C 1010.8 hPa ONO 7.9 km/h 12.9 km/h 63% 0.0 mm
11:04 16.8 °C 9.7 °C 1010.8 hPa ONO 8.4 km/h 13.7 km/h 62.8% 0.0 mm
11:09 16.9 °C 9.8 °C 1010.8 hPa NNO 7.4 km/h 14.5 km/h 63% 0.0 mm
11:14 16.9 °C 9.9 °C 1010.8 hPa NO 5.8 km/h 8 km/h 63% 0.0 mm
11:19 17.1 °C 9.8 °C 1010.8 hPa Oeste 4.8 km/h 8 km/h 62% 0.0 mm
11:24 17.1 °C 9.6 °C 1010.7 hPa ONO 3.2 km/h 9.3 km/h 61.2% 0.0 mm
11:29 17.2 °C 9.6 °C 1010.7 hPa Oeste 3.7 km/h 13 km/h 60.9% 0.0 mm
11:34 17.2 °C 9.4 °C 1010.8 hPa Oeste 4.7 km/h 13 km/h 60% 0.0 mm
11:39 17.2 °C 9.4 °C 1010.8 hPa Oeste 5.7 km/h 12.9 km/h 60.2% 0.0 mm
11:44 17.3 °C 9.4 °C 1010.8 hPa Oeste 7.6 km/h 10.3 km/h 60% 0.0 mm
11:49 17.4 °C 9.5 °C 1010.8 hPa Oeste 6.9 km/h 11.3 km/h 59.9% 0.0 mm
11:54 17.4 °C 9.3 °C 1010.7 hPa ONO 5.8 km/h 13.7 km/h 58.8% 0.0 mm
11:59 17.5 °C 9.2 °C 1010.7 hPa Oeste 6.6 km/h 16.7 km/h 58.2% 0.0 mm
12:04 17.5 °C 9.3 °C 1010.7 hPa ONO 7.6 km/h 18 km/h 58.8% 0.0 mm
12:09 17.5 °C 9.4 °C 1010.7 hPa ONO 8 km/h 19.3 km/h 58.8% 0.0 mm
12:14 17.5 °C 9.2 °C 1010.7 hPa ONO 8.7 km/h 17.7 km/h 58.2% 0.0 mm
12:19 17.5 °C 9.1 °C 1010.7 hPa ONO 9.2 km/h 17.7 km/h 58% 0.0 mm
12:24 17.4 °C 9.2 °C 1010.6 hPa ONO 10 km/h 14.8 km/h 58.5% 0.0 mm
12:29 17.6 °C 9.3 °C 1010.6 hPa Oeste 9.8 km/h 15.6 km/h 58.3% 0.0 mm
12:34 17.6 °C 9.1 °C 1010.8 hPa Oeste 9.5 km/h 18.5 km/h 57.4% 0.0 mm
12:39 17.7 °C 9.1 °C 1010.8 hPa Oeste 9.5 km/h 19.3 km/h 57% 0.0 mm
12:44 17.8 °C 9.1 °C 1010.8 hPa OSO 9.5 km/h 17.2 km/h 56.7% 0.0 mm
12:49 17.8 °C 8.9 °C 1010.8 hPa Oeste 9.7 km/h 18.3 km/h 56% 0.0 mm
12:54 17.8 °C 8.9 °C 1010.5 hPa Oeste 10 km/h 20.4 km/h 56.2% 0.0 mm
12:59 17.8 °C 8.9 °C 1010.5 hPa Oeste 11 km/h 20.9 km/h 56% 0.0 mm
13:04 17.8 °C 8.8 °C 1010.7 hPa OSO 12.2 km/h 21.7 km/h 55.5% 0.0 mm
13:09 17.9 °C 8.7 °C 1010.7 hPa OSO 11.5 km/h 22.5 km/h 55% 0.0 mm
13:14 17.9 °C 8.7 °C 1010.7 hPa OSO 10.3 km/h 24.5 km/h 54.8% 0.0 mm
13:19 17.9 °C 8.7 °C 1010.9 hPa OSO 12.3 km/h 31.5 km/h 55% 0.0 mm
13:24 17.9 °C 8.7 °C 1010.9 hPa Oeste 15.6 km/h 32.2 km/h 54.9% 0.0 mm
13:29 17.9 °C 8.7 °C 1010.9 hPa Oeste 14.9 km/h 24.1 km/h 55% 0.0 mm
13:34 17.9 °C 8.8 °C 1010.9 hPa OSO 13.7 km/h 20.9 km/h 55.3% 0.0 mm
13:39 18 °C 8.9 °C 1010.7 hPa OSO 12.4 km/h 20.9 km/h 55.3% 0.0 mm
13:44 18.1 °C 9.2 °C 1010.7 hPa ONO 10 km/h 20.9 km/h 56% 0.0 mm
13:49 18 °C 9.1 °C 1010.7 hPa Oeste 10.4 km/h 20.9 km/h 56% 0.0 mm
13:54 17.9 °C 9 °C 1010.1 hPa ONO 11.1 km/h 20.9 km/h 56% 0.0 mm
13:59 18 °C 9.1 °C 1010.1 hPa OSO 11.5 km/h 20.9 km/h 56% 0.0 mm
14:04 18 °C 8.9 °C 1010.1 hPa Oeste 11.9 km/h 16.1 km/h 55.1% 0.0 mm
14:09 18.1 °C 8.9 °C 1010.0 hPa OSO 11.2 km/h 16.7 km/h 55% 0.0 mm
14:14 18.1 °C 8.9 °C 1010.0 hPa SO 10 km/h 18 km/h 55% 0.0 mm
14:19 18.2 °C 8.9 °C 1010.2 hPa OSO 10 km/h 18.5 km/h 54.6% 0.0 mm
14:24 18.2 °C 8.9 °C 1010.2 hPa Oeste 10 km/h 19.3 km/h 54.8% 0.0 mm
14:29 18.2 °C 8.7 °C 1010.2 hPa OSO 9.4 km/h 15.6 km/h 54% 0.0 mm
14:34 18.2 °C 8.5 °C 1010.2 hPa Oeste 8.4 km/h 18 km/h 53% 0.0 mm
14:39 18.2 °C 8.5 °C 1010.2 hPa Oeste 9.1 km/h 17.7 km/h 53.2% 0.0 mm
14:44 18.2 °C 8.7 °C 1010.2 hPa Oeste 10.3 km/h 18 km/h 54% 0.0 mm
14:49 18.2 °C 8.8 °C 1010.7 hPa OSO 10.3 km/h 26.2 km/h 54.4% 0.0 mm
14:54 18.1 °C 9.2 °C 1010.7 hPa Oeste 10.3 km/h 50.1 km/h 56.5% 0.0 mm
14:59 17 °C 9.1 °C 1010.7 hPa ONO 16.3 km/h 49.9 km/h 59.5% 0.0 mm
15:04 16.2 °C 8.6 °C 1011.3 hPa ONO 23.3 km/h 46 km/h 60.7% 0.0 mm
15:09 15.8 °C 8.3 °C 1011.3 hPa Oeste 24.7 km/h 46.7 km/h 60.9% 0.0 mm
15:14 15.7 °C 8.3 °C 1011.3 hPa ONO 27 km/h 41.2 km/h 61.4% 0.0 mm
15:19 15.7 °C 8.2 °C 1011.3 hPa ONO 24.3 km/h 41.8 km/h 61% 0.0 mm
15:24 15.6 °C 8.1 °C 1010.9 hPa ONO 20.1 km/h 39.6 km/h 61% 0.0 mm
15:29 15.6 °C 7.9 °C 1010.9 hPa Oeste 20.1 km/h 40.2 km/h 60.3% 0.0 mm
15:34 15.6 °C 7.8 °C 1010.9 hPa ONO 20.1 km/h 33.8 km/h 60% 0.0 mm
15:39 15.6 °C 7.8 °C 1010.7 hPa Oeste 19.3 km/h 33.8 km/h 60% 0.0 mm
15:44 15.6 °C 8 °C 1010.7 hPa ONO 18 km/h 30.6 km/h 60.5% 0.0 mm
15:49 15.4 °C 8.1 °C 1010.9 hPa ONO 17.7 km/h 32.8 km/h 61.6% 0.0 mm
15:54 15.2 °C 8.3 °C 1010.9 hPa ONO 17.2 km/h 37.8 km/h 63.3% 0.0 mm
15:59 14.9 °C 8.5 °C 1010.9 hPa ONO 18.5 km/h 37 km/h 65.4% 0.0 mm
16:04 14.8 °C 8.8 °C 1010.9 hPa ONO 20.1 km/h 37 km/h 67.5% 0.0 mm
16:09 14.7 °C 9 °C 1010.8 hPa Oeste 19 km/h 37 km/h 68.7% 0.0 mm
16:14 14.6 °C 9.1 °C 1010.8 hPa ONO 17.2 km/h 31.7 km/h 69.6% 0.0 mm
16:19 14.4 °C 9 °C 1010.8 hPa Oeste 16.9 km/h 32.2 km/h 70% 0.0 mm
16:24 14.5 °C 9.2 °C 1010.7 hPa Oeste 16.4 km/h 24.1 km/h 70.8% 0.0 mm
16:29 14.6 °C 9.1 °C 1010.7 hPa Oeste 15.2 km/h 28.2 km/h 69.8% 0.0 mm
16:34 14.6 °C 9 °C 1010.8 hPa Oeste 13 km/h 27.4 km/h 69.3% 0.0 mm
16:39 14.6 °C 9 °C 1010.8 hPa Oeste 12.6 km/h 20.9 km/h 69% 0.0 mm
16:44 14.6 °C 9 °C 1010.8 hPa OSO 11.9 km/h 20.9 km/h 69% 0.0 mm
16:49 14.6 °C 9 °C 1010.8 hPa OSO 11.6 km/h 20.9 km/h 69.1% 0.0 mm
16:54 14.7 °C 9.2 °C 1010.7 hPa OSO 11.1 km/h 24.5 km/h 69.7% 0.0 mm
16:59 14.7 °C 9.2 °C 1010.7 hPa OSO 12 km/h 26.2 km/h 70% 0.0 mm
17:04 14.7 °C 9.2 °C 1011.0 hPa OSO 13 km/h 25.7 km/h 70% 0.0 mm
17:09 14.7 °C 9.4 °C 1011.0 hPa OSO 13 km/h 20.9 km/h 71% 0.0 mm
17:14 14.7 °C 9.6 °C 1011.0 hPa OSO 13 km/h 20.4 km/h 71.4% 0.0 mm
17:19 14.7 °C 9.7 °C 1011.0 hPa SO 11.9 km/h 20.9 km/h 71.8% 0.0 mm
17:24 14.7 °C 9.7 °C 1010.9 hPa OSO 10 km/h 19 km/h 72% 0.0 mm
17:29 14.7 °C 9.9 °C 1010.9 hPa OSO 9.8 km/h 19.3 km/h 72.8% 0.0 mm
17:34 14.7 °C 10.1 °C 1010.9 hPa OSO 9.5 km/h 11.3 km/h 73.9% 0.0 mm
17:39 14.7 °C 10.2 °C 1010.7 hPa OSO 8.1 km/h 13 km/h 74.3% 0.0 mm
17:44 14.8 °C 10.3 °C 1010.7 hPa OSO 5.8 km/h 13 km/h 74.4% 0.0 mm
17:49 14.8 °C 10.2 °C 1010.7 hPa OSO 6 km/h 12.9 km/h 74% 0.0 mm
17:54 14.8 °C 10.2 °C 1010.7 hPa ONO 6.5 km/h 9.7 km/h 74.1% 0.0 mm
17:59 14.8 °C 10.2 °C 1010.7 hPa NNE 4.9 km/h 8 km/h 74% 0.0 mm
18:04 14.8 °C 10.2 °C 1010.7 hPa NNO 2.9 km/h 10 km/h 74% 0.0 mm
18:09 14.8 °C 10.4 °C 1010.0 hPa North 3.6 km/h 10.3 km/h 75% 0.0 mm
18:14 14.7 °C 10.3 °C 1010.0 hPa NNE 4.6 km/h 13 km/h 75% 0.0 mm
18:19 14.6 °C 10.3 °C 1010.0 hPa NNE 5.5 km/h 13 km/h 75.2% 0.0 mm
18:24 14.4 °C 10.3 °C 1009.5 hPa NNE 6.9 km/h 20.4 km/h 76% 0.0 mm
18:29 14.3 °C 10.3 °C 1009.5 hPa NE 9.4 km/h 29.6 km/h 76.5% 0.0 mm
18:34 14.2 °C 10.4 °C 1009.5 hPa NE 13.7 km/h 29 km/h 77.7% 0.0 mm
18:39 14.2 °C 10.4 °C 1008.3 hPa NE 14.4 km/h 27.4 km/h 78% 0.0 mm
18:44 14.2 °C 10.5 °C 1008.3 hPa Este 15.6 km/h 22.5 km/h 78.1% 0.0 mm
18:49 14.3 °C 10.5 °C 1010.1 hPa SSO 12.9 km/h 19 km/h 78% 0.0 mm
18:54 14.4 °C 10.6 °C 1010.1 hPa Oeste 8.4 km/h 19.3 km/h 77.9% 0.0 mm
18:59 14.4 °C 10.5 °C 1010.1 hPa NO 8.4 km/h 19.3 km/h 77.1% 0.0 mm
19:04 14.4 °C 10.4 °C 1010.1 hPa OSO 8.4 km/h 14.5 km/h 77% 0.0 mm
19:09 14.4 °C 10.4 °C 1010.0 hPa ONO 7.8 km/h 14.5 km/h 77% 0.0 mm
19:14 14.4 °C 10.5 °C 1010.0 hPa Oeste 6.9 km/h 10 km/h 77.4% 0.0 mm
19:19 14.5 °C 10.7 °C 1010.0 hPa OSO 6.7 km/h 14.8 km/h 78% 0.0 mm
19:24 14.5 °C 10.7 °C 1010.0 hPa OSO 6.5 km/h 14.8 km/h 78% 0.0 mm
19:29 14.5 °C 10.7 °C 1010.0 hPa OSO 7.2 km/h 14.5 km/h 78% 0.0 mm
19:34 14.6 °C 10.8 °C 1010.0 hPa OSO 8.4 km/h 9.7 km/h 78% 0.0 mm
19:39 14.6 °C 10.8 °C 1009.8 hPa OSO 6.6 km/h 8.4 km/h 78% 0.0 mm
19:44 14.7 °C 10.8 °C 1009.8 hPa Oeste 3.9 km/h 8.7 km/h 77.9% 0.0 mm
19:49 14.8 °C 10.8 °C 1010.0 hPa Oeste 3.9 km/h 8 km/h 77.4% 0.0 mm
19:54 15.1 °C 10.9 °C 1010.0 hPa Oeste 3.9 km/h 10 km/h 76.4% 0.0 mm
19:59 15.3 °C 10.8 °C 1010.0 hPa SO 4.4 km/h 11.9 km/h 74.7% 0.0 mm
20:04 15.4 °C 10.7 °C 1010.2 hPa Sur 5 km/h 11.3 km/h 73.7% 0.0 mm
20:09 15.4 °C 10.6 °C 1010.2 hPa SSO 5.7 km/h 12.2 km/h 73.2% 0.0 mm
20:14 15.4 °C 10.6 °C 1010.2 hPa SSO 6.9 km/h 13 km/h 73% 0.0 mm
20:19 15.4 °C 10.6 °C 1010.2 hPa SSO 7.2 km/h 12.9 km/h 73% 0.0 mm
20:24 15.5 °C 10.6 °C 1009.9 hPa SO 7.6 km/h 14.8 km/h 73% 0.0 mm
20:29 15.4 °C 10.6 °C 1009.9 hPa SO 7.3 km/h 14.5 km/h 73% 0.0 mm
20:34 15.4 °C 10.7 °C 1010.1 hPa OSO 6.9 km/h 9.7 km/h 73.6% 0.0 mm
20:39 15.3 °C 10.5 °C 1010.1 hPa NO 5.5 km/h 8 km/h 73% 0.0 mm
20:44 15.3 °C 10.6 °C 1010.1 hPa Oeste 3.2 km/h 9.3 km/h 73.3% 0.0 mm
20:49 15.3 °C 10.7 °C 1010.3 hPa NO 3.5 km/h 9.7 km/h 74% 0.0 mm
20:54 15.2 °C 10.6 °C 1010.3 hPa NO 3.9 km/h 7.6 km/h 74% 0.0 mm
20:59 15.2 °C 10.7 °C 1010.3 hPa NNO 3.6 km/h 8 km/h 74.6% 0.0 mm
21:04 15.1 °C 10.7 °C 1010.7 hPa Oeste 3.2 km/h 8.4 km/h 75% 0.0 mm
21:09 15.1 °C 10.7 °C 1010.7 hPa Oeste 3.1 km/h 8 km/h 75% 0.0 mm
21:14 15.1 °C 10.7 °C 1010.7 hPa OSO 2.9 km/h 7.4 km/h 75% 0.0 mm
21:19 15.1 °C 10.7 °C 1010.8 hPa Oeste 3 km/h 8 km/h 75% 0.0 mm
21:24 15.1 °C 10.7 °C 1010.8 hPa Oeste 3.2 km/h 8 km/h 75% 0.0 mm
21:29 15.1 °C 10.7 °C 1010.8 hPa Oeste 3.2 km/h 7.4 km/h 75% 0.0 mm
21:34 15.1 °C 10.7 °C 1011.0 hPa Oeste 3.2 km/h 8 km/h 75% 0.0 mm
21:39 15.1 °C 10.7 °C 1011.0 hPa Oeste 3.1 km/h 8 km/h 75% 0.0 mm
21:44 15.2 °C 10.8 °C 1011.0 hPa Oeste 2.9 km/h 5.8 km/h 75% 0.0 mm
21:49 15.2 °C 10.8 °C 1011.3 hPa Oeste 3 km/h 6.4 km/h 75% 0.0 mm
21:54 15.2 °C 10.8 °C 1011.3 hPa Oeste 3.2 km/h 6.4 km/h 75% 0.0 mm
21:59 15.2 °C 10.8 °C 1011.3 hPa OSO 2.8 km/h 6.4 km/h 75% 0.0 mm
22:04 15.1 °C 10.8 °C 1011.7 hPa ESE 2.2 km/h 6.4 km/h 75.5% 0.0 mm
22:09 15.1 °C 10.9 °C 1011.7 hPa ESE 2.5 km/h 6.4 km/h 76% 0.0 mm
22:14 15 °C 10.8 °C 1011.7 hPa ESE 2.9 km/h 3.7 km/h 76% 0.0 mm
22:19 15 °C 10.8 °C 1012.0 hPa ESE 1.8 km/h 5.6 km/h 76% 0.0 mm
22:24 15 °C 10.8 °C 1012.0 hPa Calm   5.8 km/h 76% 0.0 mm
22:29 15 °C 10.8 °C 1012.0 hPa Sur 0.8 km/h 6.4 km/h 76% 0.0 mm
22:34 15 °C 10.8 °C 1012.0 hPa Sur 2.2 km/h 3.7 km/h 76% 0.0 mm
22:39 15 °C 10.8 °C 1011.9 hPa Sur 1.4 km/h 3.9 km/h 76% 0.0 mm
22:44 15 °C 10.8 °C 1011.9 hPa Calm   3.2 km/h 76% 0.0 mm
22:49 15 °C 10.7 °C 1012.2 hPa Calm   5.8 km/h 75.6% 0.0 mm
22:54 15 °C 10.6 °C 1012.2 hPa Calm   6.4 km/h 75% 0.0 mm
22:59 15.1 °C 10.8 °C 1012.2 hPa Calm   4.8 km/h 75.4% 0.0 mm
23:04 15.1 °C 10.9 °C 1012.2 hPa Calm   5.6 km/h 76% 0.0 mm
23:09 15 °C 10.8 °C 1012.2 hPa Sur 0.8 km/h 4.8 km/h 76% 0.0 mm
23:14 14.9 °C 10.9 °C 1012.2 hPa Sur 2.2 km/h 4.8 km/h 76.8% 0.0 mm
23:19 14.8 °C 10.8 °C 1012.3 hPa Sur 2.2 km/h 5.8 km/h 77% 0.0 mm
23:24 14.8 °C 10.8 °C 1012.3 hPa Sur 2.2 km/h 6.4 km/h 77% 0.0 mm
23:29 14.7 °C 10.7 °C 1012.3 hPa Sur 1.4 km/h 3.2 km/h 77% 0.0 mm
23:34 14.7 °C 10.7 °C 1012.5 hPa Calm     77% 0.0 mm
23:39 14.7 °C 10.7 °C 1012.5 hPa Calm   3.7 km/h 77% 0.0 mm
23:44 14.7 °C 10.8 °C 1012.5 hPa Calm   3.2 km/h 77.6% 0.0 mm
23:49 14.7 °C 10.8 °C 1012.6 hPa Calm     77.9% 0.0 mm
23:54 14.7 °C 10.8 °C 1012.6 hPa Calm   5 km/h 77.2% 0.0 mm
23:59 14.7 °C 10.7 °C 1012.6 hPa Oeste 1 km/h 5.8 km/h 77% 0.0 mm
Murcia-Puente Tocinos, España
Compliments of Weather Underground - 3 mb

La estación de MeteoMurcia.com, publica sus datos en los siguientes proyectos:

Weather Underground PWS IMURCIAP2 Meteoclimatic www.awekas.at

W3Counter
Web Analytics